Time;durP1;ratioP1;P1;durP2;ratioP2;P2;SDS_P1;SDS_P2;PMS_P1;PMS_P2;Temp;Humidity;BMP_temperature;BMP_pressure;BME280_temperature;BME280_humidity;BME280_pressure;Samples;Min_cycle;Max_cycle;Signal;HPM_P1;HPM_P2
2022/07/06 00:00:44;;;;;;;8.23;3.90;;;;;;;10.51;100.00;102626.06;5247512;28;20028;-70
2022/07/06 00:03:14;;;;;;;9.63;4.07;;;;;;;10.54;100.00;102624.00;5237546;28;20406;-70
2022/07/06 00:05:45;;;;;;;9.07;3.67;;;;;;;10.57;100.00;102618.34;5257073;28;20028;-70
2022/07/06 00:08:15;;;;;;;12.20;4.10;;;;;;;10.59;100.00;102626.28;5247519;28;20016;-70
2022/07/06 00:10:46;;;;;;;10.30;4.03;;;;;;;10.58;100.00;102617.38;5252701;28;20089;-70
2022/07/06 00:13:16;;;;;;;8.10;4.20;;;;;;;10.59;100.00;102628.97;5255434;28;20021;-70
2022/07/06 00:15:47;;;;;;;12.40;3.85;;;;;;;10.63;100.00;102617.00;5261079;28;20099;-70
2022/07/06 00:18:18;;;;;;;5.28;3.58;;;;;;;10.70;100.00;102628.97;5246857;28;20017;-70
2022/07/06 00:20:48;;;;;;;6.88;4.20;;;;;;;10.75;100.00;102625.94;5253526;28;20024;-70
2022/07/06 00:23:19;;;;;;;8.68;3.85;;;;;;;10.77;100.00;102623.97;5262049;28;20053;-70
2022/07/06 00:25:50;;;;;;;8.82;4.85;;;;;;;10.76;100.00;102625.78;5259367;28;20029;-70
2022/07/06 00:28:20;;;;;;;8.38;4.10;;;;;;;10.76;100.00;102624.94;5246585;28;20470;-70
2022/07/06 00:30:52;;;;;;;8.00;4.63;;;;;;;10.75;100.00;102625.94;5247084;28;20440;-70
2022/07/06 00:33:22;;;;;;;14.57;4.75;;;;;;;10.74;100.00;102617.00;5250798;28;20023;-70
2022/07/06 00:35:53;;;;;;;7.28;3.80;;;;;;;10.73;100.00;102614.44;5255916;28;20020;-70
2022/07/06 00:38:23;;;;;;;5.80;4.07;;;;;;;10.70;100.00;102612.03;5260295;28;20039;-70
2022/07/06 00:40:54;;;;;;;10.60;3.97;;;;;;;10.64;100.00;102616.03;5246563;28;20021;-70
2022/07/06 00:43:24;;;;;;;9.80;4.03;;;;;;;10.60;100.00;102615.44;5246700;28;20032;-70
2022/07/06 00:45:55;;;;;;;10.45;4.03;;;;;;;10.53;100.00;102619.56;5246608;28;20024;-70
2022/07/06 00:48:25;;;;;;;8.50;4.20;;;;;;;10.47;100.00;102620.06;5254581;28;20032;-70
2022/07/06 00:50:56;;;;;;;14.63;4.80;;;;;;;10.42;100.00;102616.06;5252264;28;20908;-70
2022/07/06 00:53:26;;;;;;;9.38;4.40;;;;;;;10.40;100.00;102612.66;5255769;28;20019;-70
2022/07/06 00:55:57;;;;;;;11.20;4.47;;;;;;;10.36;100.00;102620.09;5253486;28;20024;-70
2022/07/06 00:58:28;;;;;;;9.63;4.65;;;;;;;10.32;100.00;102613.25;5257342;28;20033;-70
2022/07/06 01:00:58;;;;;;;10.48;4.95;;;;;;;10.31;100.00;102619.59;5260385;28;20035;-70
2022/07/06 01:03:29;;;;;;;11.70;4.57;;;;;;;10.28;100.00;102617.13;5234588;28;20223;-70
2022/07/06 01:06:00;;;;;;;13.10;4.90;;;;;;;10.27;100.00;102623.47;5244918;28;20028;-70
2022/07/06 01:08:31;;;;;;;9.00;4.72;;;;;;;10.26;100.00;102619.09;5246268;28;20105;-70
2022/07/06 01:11:02;;;;;;;8.23;5.00;;;;;;;10.24;100.00;102615.66;5253900;28;20059;-70
2022/07/06 01:13:33;;;;;;;9.52;5.07;;;;;;;10.20;100.00;102611.50;5265347;28;20024;-70
2022/07/06 01:16:04;;;;;;;8.50;4.68;;;;;;;10.17;100.00;102607.22;5246137;28;20031;-70
2022/07/06 01:18:34;;;;;;;8.63;5.50;;;;;;;10.16;100.00;102607.34;5262465;28;20065;-70
2022/07/06 01:21:24;;;;;;;11.43;5.80;;;;;;;10.14;100.00;102602.13;5250449;28;20081;-70
2022/07/06 01:23:54;;;;;;;10.70;5.47;;;;;;;10.10;100.00;102604.19;5246083;28;20410;-70
2022/07/06 01:26:25;;;;;;;12.13;5.22;;;;;;;10.04;100.00;102595.75;5246085;28;20031;-70
2022/07/06 01:28:56;;;;;;;10.43;4.95;;;;;;;10.01;100.00;102606.72;5245655;28;20032;-70
2022/07/06 01:31:27;;;;;;;15.23;5.55;;;;;;;9.98;100.00;102613.16;5259600;28;20111;-70
2022/07/06 01:33:58;;;;;;;10.73;5.90;;;;;;;9.96;100.00;102614.28;5255417;28;20020;-70
2022/07/06 01:36:29;;;;;;;14.38;5.70;;;;;;;9.95;100.00;102613.44;5249358;28;20024;-70
2022/07/06 01:39:00;;;;;;;13.20;5.80;;;;;;;9.94;100.00;102622.44;5256867;28;20024;-70
2022/07/06 01:41:31;;;;;;;8.82;5.13;;;;;;;9.92;100.00;102623.53;5261181;28;20536;-70
2022/07/06 01:44:12;;;;;;;9.52;5.15;;;;;;;9.88;100.00;102617.53;5259038;28;20101;-70
2022/07/06 01:46:43;;;;;;;9.20;4.93;;;;;;;9.79;100.00;102619.13;5249788;28;20020;-70
2022/07/06 01:49:14;;;;;;;9.13;4.68;;;;;;;9.72;100.00;102619.69;5247493;28;20074;-70
2022/07/06 01:51:44;;;;;;;10.82;4.82;;;;;;;9.62;100.00;102619.53;5265060;28;20093;-71
2022/07/06 01:54:19;;;;;;;10.73;5.13;;;;;;;9.55;100.00;102616.50;5252820;28;20038;-70
2022/07/06 01:56:50;;;;;;;8.80;5.07;;;;;;;9.50;100.00;102610.63;5260151;28;20032;-71
2022/07/06 01:59:20;;;;;;;14.55;6.32;;;;;;;9.45;100.00;102610.13;5247527;28;20423;-70
2022/07/06 02:01:59;;;;;;;9.38;5.85;;;;;;;9.44;100.00;102611.09;5245304;28;20074;-71
2022/07/06 02:04:30;;;;;;;10.73;6.03;;;;;;;9.43;100.00;102603.16;5239031;28;20483;-70
2022/07/06 02:07:01;;;;;;;11.70;5.20;;;;;;;9.41;100.00;102607.78;5250712;28;20082;-70
2022/07/06 02:09:33;;;;;;;9.55;5.68;;;;;;;9.37;100.00;102603.63;5245827;28;20108;-70
2022/07/06 02:12:04;;;;;;;8.77;4.68;;;;;;;9.33;100.00;102605.66;5245226;28;20032;-70
2022/07/06 02:14:35;;;;;;;8.80;5.20;;;;;;;9.28;100.00;102614.03;5244897;28;20074;-70
2022/07/06 02:17:05;;;;;;;18.00;6.30;;;;;;;9.23;100.00;102599.28;5262745;28;20416;-70
2022/07/06 02:19:36;;;;;;;10.05;5.88;;;;;;;9.19;100.00;102606.72;5255070;28;20478;-70
2022/07/06 02:22:07;;;;;;;9.45;5.82;;;;;;;9.21;100.00;102607.47;5243965;28;20031;-70
2022/07/06 02:24:37;;;;;;;13.35;5.85;;;;;;;9.28;100.00;102607.84;5257646;28;20103;-69
2022/07/06 02:27:08;;;;;;;10.65;5.30;;;;;;;9.34;100.00;102604.72;5259638;28;20048;-69
2022/07/06 02:29:38;;;;;;;10.63;5.90;;;;;;;9.34;100.00;102608.25;5258848;28;20091;-69
2022/07/06 02:32:08;;;;;;;9.25;5.82;;;;;;;9.36;100.00;102604.59;5266415;28;20048;-70
2022/07/06 02:34:39;;;;;;;13.57;6.57;;;;;;;9.38;100.00;102599.97;5251075;28;20036;-70
2022/07/06 02:37:10;;;;;;;13.05;6.85;;;;;;;9.40;100.00;102598.91;5252706;28;20371;-69
2022/07/06 02:39:40;;;;;;;13.13;6.18;;;;;;;9.41;100.00;102597.06;5249631;28;20031;-69
2022/07/06 02:42:11;;;;;;;11.07;5.65;;;;;;;9.39;100.00;102599.88;5245095;28;20024;-69
2022/07/06 02:44:41;;;;;;;16.23;7.25;;;;;;;9.39;100.00;102607.03;5248632;28;20031;-69
2022/07/06 02:47:12;;;;;;;11.70;5.93;;;;;;;9.41;100.00;102597.06;5257746;28;20016;-69
2022/07/06 02:49:43;;;;;;;13.07;5.80;;;;;;;9.42;100.00;102599.63;5245002;28;20024;-69
2022/07/06 02:52:13;;;;;;;10.60;6.28;;;;;;;9.46;100.00;102601.09;5256889;28;20026;-70
2022/07/06 02:54:44;;;;;;;7.70;4.63;;;;;;;9.47;100.00;102597.44;5259305;28;20055;-69
2022/07/06 02:57:15;;;;;;;14.48;5.57;;;;;;;9.42;100.00;102599.63;5245779;28;20021;-69
2022/07/06 02:59:46;;;;;;;8.48;5.25;;;;;;;9.39;100.00;102599.00;5249297;28;20070;-69
2022/07/06 03:02:17;;;;;;;11.13;5.70;;;;;;;9.36;100.00;102605.44;5247308;28;20029;-70
2022/07/06 03:04:47;;;;;;;10.85;5.55;;;;;;;9.39;100.00;102599.88;5246675;28;20060;-69
2022/07/06 03:07:18;;;;;;;10.30;5.65;;;;;;;9.39;100.00;102597.19;5266374;28;20381;-69
2022/07/06 03:09:49;;;;;;;10.38;5.70;;;;;;;9.40;100.00;102598.91;5248840;28;20016;-69
2022/07/06 03:12:19;;;;;;;14.15;5.60;;;;;;;9.37;100.00;102599.13;5253351;28;20051;-69
2022/07/06 03:14:50;;;;;;;11.75;5.78;;;;;;;9.35;100.00;102598.41;5257513;28;20059;-69
2022/07/06 03:17:21;;;;;;;9.85;5.65;;;;;;;9.32;100.00;102609.31;5248138;28;20340;-69
2022/07/06 03:19:52;;;;;;;16.13;6.35;;;;;;;9.31;100.00;102596.91;5255399;28;20103;-69
2022/07/06 03:22:23;;;;;;;9.50;5.40;;;;;;;9.27;100.00;102608.81;5248437;28;20154;-69
2022/07/06 03:24:53;;;;;;;9.93;5.70;;;;;;;9.21;100.00;102607.47;5249418;28;20419;-69
2022/07/06 03:27:24;;;;;;;13.98;5.97;;;;;;;9.15;100.00;102615.09;5260694;28;20436;-69
2022/07/06 03:29:54;;;;;;;16.30;6.40;;;;;;;9.09;100.00;102603.03;5248001;28;20038;-70
2022/07/06 03:32:25;;;;;;;16.50;7.40;;;;;;;9.08;100.00;102612.00;5258198;28;20027;-69
2022/07/06 03:34:55;;;;;;;9.93;6.22;;;;;;;9.07;100.00;102615.66;5265486;28;20020;-69
2022/07/06 03:37:25;;;;;;;14.43;6.40;;;;;;;9.09;100.00;102613.75;5259028;28;20047;-70
2022/07/06 03:39:56;;;;;;;10.55;6.43;;;;;;;9.12;100.00;102621.53;5264530;28;20028;-70
2022/07/06 03:42:26;;;;;;;14.68;7.82;;;;;;;9.18;100.00;102613.03;5248185;28;20179;-70
2022/07/06 03:44:57;;;;;;;12.13;6.50;;;;;;;9.25;100.00;102608.09;5253425;28;20425;-69
2022/07/06 03:47:27;;;;;;;14.23;7.47;;;;;;;9.29;100.00;102613.09;5255792;28;20020;-69
2022/07/06 03:49:58;;;;;;;12.60;7.32;;;;;;;9.33;100.00;102611.03;5248068;28;20406;-69
2022/07/06 03:52:28;;;;;;;13.63;6.97;;;;;;;9.39;100.00;102620.41;5248363;28;20028;-70
2022/07/06 03:54:59;;;;;;;12.57;7.03;;;;;;;9.46;100.00;102613.66;5260182;28;20021;-69
2022/07/06 03:57:29;;;;;;;12.55;6.40;;;;;;;9.51;100.00;102611.47;5261212;28;20031;-70
2022/07/06 04:00:00;;;;;;;15.13;7.22;;;;;;;9.54;100.00;102612.09;5257329;28;20489;-69
2022/07/06 04:02:31;;;;;;;15.20;7.00;;;;;;;9.56;100.00;102609.31;5247672;28;20044;-69
2022/07/06 04:05:02;;;;;;;13.77;7.40;;;;;;;9.58;100.00;102621.59;5237951;28;20533;-69
2022/07/06 04:07:32;;;;;;;10.18;5.70;;;;;;;9.57;100.00;102613.69;5247592;28;20107;-69
2022/07/06 04:10:03;;;;;;;16.05;5.88;;;;;;;9.54;100.00;102617.47;5246688;28;20036;-69
2022/07/06 04:12:40;;;;;;;11.13;6.25;;;;;;;9.53;100.00;102612.19;5267353;28;20468;-70
2022/07/06 04:15:11;;;;;;;16.20;6.18;;;;;;;9.52;100.00;102610.50;5268296;28;20028;-69
2022/07/06 04:17:52;;;;;;;14.18;5.53;;;;;;;9.50;100.00;102621.34;5259611;28;20555;-69
2022/07/06 04:20:25;;;;;;;10.55;5.68;;;;;;;9.49;100.00;102614.28;5253884;28;20028;-69
2022/07/06 04:22:55;;;;;;;11.40;6.10;;;;;;;9.51;100.00;102620.38;5247361;28;20078;-69
2022/07/06 04:25:27;;;;;;;11.57;6.22;;;;;;;9.54;100.00;102613.94;5265804;28;20024;-69
2022/07/06 04:27:57;;;;;;;16.80;6.63;;;;;;;9.54;100.00;102614.78;5255016;28;20020;-69
2022/07/06 04:30:27;;;;;;;11.65;6.80;;;;;;;9.56;100.00;102611.97;5252872;28;20024;-69
2022/07/06 04:32:58;;;;;;;11.27;6.45;;;;;;;9.62;100.00;102616.88;5268085;28;20024;-69
2022/07/06 04:35:28;;;;;;;13.50;5.97;;;;;;;9.69;100.00;102618.13;5260022;28;20026;-69
2022/07/06 04:37:59;;;;;;;14.85;6.80;;;;;;;9.77;100.00;102623.72;5246840;28;20021;-69
2022/07/06 04:40:30;;;;;;;14.10;7.10;;;;;;;9.89;100.00;102616.59;5246700;28;20020;-69
2022/07/06 04:43:00;;;;;;;12.57;6.93;;;;;;;10.02;100.00;102613.78;5249217;28;20071;-69
2022/07/06 04:45:31;;;;;;;12.52;7.55;;;;;;;10.11;100.00;102611.25;5257897;28;20020;-69
2022/07/06 04:48:01;;;;;;;12.80;6.28;;;;;;;10.20;100.00;102611.50;5248719;28;20051;-69
2022/07/06 04:50:32;;;;;;;10.90;6.20;;;;;;;10.26;100.00;102613.75;5246921;28;20028;-70
2022/07/06 04:53:03;;;;;;;13.25;6.18;;;;;;;10.33;100.00;102598.84;5251350;28;20031;-69
2022/07/06 04:55:34;;;;;;;11.50;6.30;;;;;;;10.41;100.00;102609.84;5254908;28;20054;-69
2022/07/06 04:58:04;;;;;;;13.38;6.78;;;;;;;10.49;100.00;102615.47;5266323;28;20020;-70
2022/07/06 05:00:35;;;;;;;10.80;6.03;;;;;;;10.56;100.00;102607.75;5253565;28;20024;-70
2022/07/06 05:03:05;;;;;;;9.90;6.47;;;;;;;10.62;100.00;102610.78;5245536;28;20024;-70
2022/07/06 05:05:36;;;;;;;14.45;6.70;;;;;;;10.71;100.00;102613.72;5259527;28;20079;-69
2022/07/06 05:08:06;;;;;;;12.95;6.63;;;;;;;10.77;100.00;102618.59;5246321;28;20016;-70
2022/07/06 05:10:37;;;;;;;12.02;5.78;;;;;;;10.82;100.00;102614.53;5246249;28;20024;-70
2022/07/06 05:13:07;;;;;;;11.55;7.03;;;;;;;10.82;100.00;102619.06;5246121;28;20569;-70
2022/07/06 05:15:38;;;;;;;15.07;6.00;;;;;;;10.82;100.00;102624.44;5250581;28;20381;-70
2022/07/06 05:18:08;;;;;;;13.75;6.97;;;;;;;10.85;100.00;102621.50;5254660;28;20500;-69
2022/07/06 05:20:39;;;;;;;17.45;7.38;;;;;;;10.87;100.00;102622.22;5245645;28;20035;-69
2022/07/06 05:23:09;;;;;;;11.13;6.72;;;;;;;10.91;100.00;102625.53;5246000;28;20024;-70
2022/07/06 05:25:40;;;;;;;12.38;6.68;;;;;;;10.95;100.00;102630.53;5259463;28;20103;-69
2022/07/06 05:28:10;;;;;;;12.13;7.18;;;;;;;11.00;100.00;102631.00;5245889;28;20040;-69
2022/07/06 05:30:41;;;;;;;13.68;8.20;;;;;;;11.05;100.00;102638.69;5245771;28;20032;-70
2022/07/06 05:33:11;;;;;;;18.75;8.30;;;;;;;11.11;100.00;102636.34;5245903;28;20025;-70
2022/07/06 05:35:42;;;;;;;16.02;8.18;;;;;;;11.22;100.00;102638.13;5246048;28;20477;-70
2022/07/06 05:38:12;;;;;;;15.07;7.97;;;;;;;11.33;100.00;102634.56;5245679;28;20017;-70
2022/07/06 05:40:43;;;;;;;17.02;8.52;;;;;;;11.42;100.00;102641.84;5256389;28;20338;-71
2022/07/06 05:43:13;;;;;;;22.55;8.25;;;;;;;11.46;100.00;102640.63;5248228;28;20032;-71
2022/07/06 05:45:44;;;;;;;14.02;8.02;;;;;;;11.59;100.00;102635.91;5257675;28;20042;-71
2022/07/06 05:51:03;;;;;;;17.02;8.48;;;;;;;11.99;100.00;102635.22;5247909;28;20445;-71
2022/07/06 05:53:34;;;;;;;14.95;8.77;;;;;;;12.26;100.00;102637.38;5255724;28;20024;-70
2022/07/06 05:56:04;;;;;;;19.67;8.30;;;;;;;12.55;100.00;102644.72;5254568;28;20035;-71
2022/07/06 05:58:35;;;;;;;12.57;7.57;;;;;;;12.83;100.00;102643.97;5255739;28;20478;-71
2022/07/06 06:01:07;;;;;;;16.75;7.78;;;;;;;13.06;100.00;102650.00;5245575;28;20032;-71
2022/07/06 06:03:38;;;;;;;15.52;7.60;;;;;;;13.28;100.00;102648.91;5245918;28;20423;-71
2022/07/06 06:06:08;;;;;;;13.70;7.40;;;;;;;13.50;100.00;102647.78;5265822;28;20063;-71
2022/07/06 06:08:39;;;;;;;16.50;8.57;;;;;;;13.68;100.00;102643.41;5251838;28;20115;-71
2022/07/06 06:11:09;;;;;;;17.77;7.43;;;;;;;13.83;100.00;102648.34;5254476;28;20515;-71
2022/07/06 06:13:40;;;;;;;15.60;7.93;;;;;;;14.28;100.00;102645.84;5263691;28;20031;-71
2022/07/06 06:16:10;;;;;;;15.27;7.30;;;;;;;15.21;100.00;102647.56;5245236;28;20500;-71
2022/07/06 06:18:41;;;;;;;13.95;7.72;;;;;;;15.66;100.00;102643.94;5248557;28;20062;-71
2022/07/06 06:21:12;;;;;;;15.25;7.88;;;;;;;15.73;100.00;102641.47;5254902;28;20070;-71
2022/07/06 06:23:42;;;;;;;17.65;8.27;;;;;;;16.07;100.00;102636.13;5258689;28;20024;-71
2022/07/06 06:26:13;;;;;;;12.35;7.85;;;;;;;16.47;100.00;102634.69;5257492;28;20024;-71
2022/07/06 06:28:43;;;;;;;15.10;7.30;;;;;;;17.05;100.00;102632.03;5246022;28;20127;-71
2022/07/06 06:31:14;;;;;;;13.05;7.32;;;;;;;17.75;100.00;102631.63;5245483;28;20086;-71
2022/07/06 06:33:44;;;;;;;13.02;6.30;;;;;;;18.47;100.00;102625.38;5248658;28;20036;-72
2022/07/06 06:36:14;;;;;;;10.48;5.65;;;;;;;19.45;100.00;102631.16;5262573;28;20016;-71
2022/07/06 06:38:45;;;;;;;16.27;5.85;;;;;;;19.73;100.00;102627.88;5258017;28;20020;-71
2022/07/06 06:41:15;;;;;;;13.25;6.22;;;;;;;20.04;100.00;102636.78;5267159;28;20450;-71
2022/07/06 06:43:46;;;;;;;11.80;4.80;;;;;;;20.92;100.00;102640.53;5249375;28;20036;-71
2022/07/06 06:46:17;;;;;;;9.77;4.68;;;;;;;21.11;100.00;102639.94;5262464;28;20027;-71
2022/07/06 06:48:47;;;;;;;11.70;6.63;;;;;;;21.15;100.00;102640.41;5249156;28;20547;-71
2022/07/06 06:51:18;;;;;;;13.15;5.25;;;;;;;20.86;100.00;102644.88;5249174;28;20024;-72
2022/07/06 06:53:48;;;;;;;7.88;4.38;;;;;;;20.88;100.00;102642.84;5248644;28;20016;-71
2022/07/06 06:56:19;;;;;;;8.13;4.43;;;;;;;21.33;100.00;102646.28;5262157;28;20089;-71
2022/07/06 06:58:49;;;;;;;14.25;4.43;;;;;;;21.31;100.00;102642.06;5256461;28;20031;-72
2022/07/06 07:01:20;;;;;;;12.95;4.00;;;;;;;20.93;100.00;102640.38;5248805;28;20036;-72
2022/07/06 07:03:51;;;;;;;10.82;4.25;;;;;;;20.64;100.00;102637.69;5236836;28;20025;-72
2022/07/06 07:06:22;;;;;;;7.63;3.70;;;;;;;20.58;100.00;102647.47;5269410;28;20020;-71
2022/07/06 07:08:52;;;;;;;5.03;3.15;;;;;;;20.47;100.00;102647.09;5252946;28;20017;-72
2022/07/06 07:11:23;;;;;;;11.52;3.10;;;;;;;20.47;100.00;102649.81;5259428;28;20024;-72
2022/07/06 07:13:53;;;;;;;6.38;2.90;;;;;;;20.69;100.00;102643.41;5251700;28;20499;-71
2022/07/06 07:16:24;;;;;;;7.95;2.92;;;;;;;20.91;100.00;102653.34;5248380;28;20104;-71
2022/07/06 07:18:54;;;;;;;9.13;2.90;;;;;;;21.11;100.00;102650.84;5248139;28;20481;-72
2022/07/06 07:21:25;;;;;;;6.32;2.85;;;;;;;20.82;100.00;102653.63;5254930;28;20112;-72
2022/07/06 07:23:55;;;;;;;12.82;3.28;;;;;;;20.85;100.00;102651.38;5248394;28;20022;-71
2022/07/06 07:26:26;;;;;;;14.07;3.17;;;;;;;20.86;100.00;102650.34;5248541;28;20016;-71
2022/07/06 07:28:56;;;;;;;5.85;2.72;;;;;;;21.40;100.00;102652.66;5256180;28;20487;-71
2022/07/06 07:31:27;;;;;;;7.32;2.33;;;;;;;22.79;92.04;102650.09;5267630;28;20089;-72
2022/07/06 07:33:58;;;;;;;9.32;2.53;;;;;;;23.15;86.63;102654.50;5248435;28;20107;-72
2022/07/06 07:36:29;;;;;;;10.15;3.10;;;;;;;22.74;92.73;102641.66;5262058;28;20041;-72
2022/07/06 07:38:59;;;;;;;10.05;2.95;;;;;;;23.11;88.70;102640.38;5258706;28;20469;-72
2022/07/06 07:41:30;;;;;;;8.60;2.38;;;;;;;23.73;75.26;102652.94;5269188;28;20533;-72
2022/07/06 07:44:00;;;;;;;11.18;2.25;;;;;;;23.38;79.94;102649.50;5268624;28;20034;-71
2022/07/06 07:46:31;;;;;;;3.35;1.88;;;;;;;23.19;81.59;102636.59;5248015;28;20548;-72
2022/07/06 07:49:01;;;;;;;7.85;2.20;;;;;;;23.57;75.89;102636.03;5251852;28;20035;-72
2022/07/06 07:51:32;;;;;;;7.53;1.80;;;;;;;24.10;70.40;102631.41;5255288;28;20035;-72
2022/07/06 07:54:03;;;;;;;5.25;1.60;;;;;;;23.23;71.52;102643.34;5268749;28;20119;-72
2022/07/06 07:56:33;;;;;;;7.85;2.10;;;;;;;23.73;71.62;102641.13;5254576;28;20028;-72
2022/07/06 07:59:04;;;;;;;7.85;2.22;;;;;;;24.11;67.21;102643.22;5254358;28;20082;-72
2022/07/06 08:01:34;;;;;;;3.63;1.60;;;;;;;24.71;60.93;102633.81;5268751;28;20436;-72
2022/07/06 08:04:05;;;;;;;7.50;1.70;;;;;;;23.48;66.48;102629.91;5241767;28;20028;-72
2022/07/06 08:06:36;;;;;;;6.22;1.73;;;;;;;23.27;72.24;102629.03;5268809;28;20016;-72
2022/07/06 08:09:07;;;;;;;3.55;1.20;;;;;;;23.68;70.52;102635.44;5255082;28;20035;-72
2022/07/06 08:11:38;;;;;;;3.97;1.77;;;;;;;24.15;64.65;102628.03;5255881;28;20028;-72
2022/07/06 08:14:08;;;;;;;4.25;1.15;;;;;;;24.69;59.54;102635.06;5260730;28;20035;-72
2022/07/06 08:16:39;;;;;;;4.43;1.38;;;;;;;24.90;54.25;102634.78;5247370;28;20028;-72
2022/07/06 08:19:13;;;;;;;3.30;1.20;;;;;;;24.27;58.58;102624.41;5247209;28;20024;-72
2022/07/06 08:21:44;;;;;;;6.50;1.25;;;;;;;23.93;60.83;102624.69;5254276;28;20549;-72
2022/07/06 08:24:14;;;;;;;2.45;1.60;;;;;;;24.15;58.52;102628.03;5247412;28;20170;-72
2022/07/06 08:26:45;;;;;;;6.97;1.52;;;;;;;23.74;66.04;102626.38;5246188;28;20024;-72
2022/07/06 08:29:15;;;;;;;7.47;1.67;;;;;;;23.57;66.60;102623.19;5247732;28;20031;-72
2022/07/06 08:31:46;;;;;;;8.52;2.05;;;;;;;23.92;66.25;102621.09;5260559;28;20032;-72
2022/07/06 08:34:16;;;;;;;5.28;1.00;;;;;;;24.24;60.21;102619.34;5259531;28;20021;-72
2022/07/06 08:36:47;;;;;;;7.20;1.42;;;;;;;23.69;62.11;102615.19;5246746;28;20031;-72
2022/07/06 08:39:17;;;;;;;5.65;1.33;;;;;;;23.93;65.59;102620.03;5260918;28;20640;-72
2022/07/06 08:41:49;;;;;;;3.95;1.60;;;;;;;24.45;60.40;102618.28;5247020;28;20024;-72
2022/07/06 08:44:20;;;;;;;5.47;1.70;;;;;;;24.46;59.82;102616.38;5246468;28;20046;-72
2022/07/06 08:46:54;;;;;;;4.68;1.55;;;;;;;24.11;59.42;102611.16;5247119;28;20082;-72
2022/07/06 08:49:26;;;;;;;6.53;1.90;;;;;;;24.37;60.78;102610.28;5246754;28;20032;-72
2022/07/06 08:51:57;;;;;;;8.20;1.40;;;;;;;24.58;59.44;102602.81;5247172;28;20104;-72
2022/07/06 08:54:28;;;;;;;3.55;1.30;;;;;;;24.87;56.84;102598.69;5251418;28;20615;-72
2022/07/06 08:56:59;;;;;;;8.75;1.50;;;;;;;24.50;59.42;102596.53;5261223;28;20110;-72
2022/07/06 08:59:30;;;;;;;8.40;1.85;;;;;;;24.15;59.96;102597.88;5254148;28;20319;-72
2022/07/06 09:02:00;;;;;;;4.32;1.50;;;;;;;24.03;61.11;102598.50;5252967;28;20467;-72
2022/07/06 09:04:35;;;;;;;52.88;4.07;;;;;;;23.74;59.36;102596.22;5232774;28;20589;-72
2022/07/06 09:07:05;;;;;;;7.72;1.75;;;;;;;22.80;60.05;102591.63;5246006;28;20013;-73
2022/07/06 09:09:37;;;;;;;3.58;1.50;;;;;;;22.32;68.90;102608.03;5246595;28;20505;-71
2022/07/06 09:12:13;;;;;;;6.70;1.88;;;;;;;22.47;71.07;102589.59;5246399;28;20030;-72
2022/07/06 09:14:43;;;;;;;3.28;1.30;;;;;;;23.03;67.42;102594.03;5256753;28;20053;-72
2022/07/06 09:17:14;;;;;;;4.28;1.65;;;;;;;23.00;64.32;102594.47;5267291;28;20457;-71
2022/07/06 09:19:45;;;;;;;7.78;1.83;;;;;;;22.79;62.59;102595.38;5255111;28;20032;-72
2022/07/06 09:22:31;;;;;;;5.80;2.15;;;;;;;22.44;67.20;102603.69;5245978;28;20385;-72
2022/07/06 09:25:04;;;;;;;7.32;2.03;;;;;;;22.25;71.44;102607.16;5247418;28;20036;-71
2022/07/06 09:27:38;;;;;;;5.35;1.63;;;;;;;22.30;68.10;102601.09;5258025;28;20016;-72
2022/07/06 09:30:10;;;;;;;4.20;1.50;;;;;;;22.10;67.82;102611.88;5246098;28;20369;-72
2022/07/06 09:32:45;;;;;;;8.00;1.85;;;;;;;21.94;68.10;102608.41;5246215;28;20063;-72
2022/07/06 09:35:36;;;;;;;8.95;2.10;;;;;;;21.93;69.95;102608.56;5251707;28;20473;-72
2022/07/06 09:38:11;;;;;;;6.70;1.80;;;;;;;21.93;72.08;102612.16;5250756;28;20024;-72
2022/07/06 09:40:44;;;;;;;5.75;1.17;;;;;;;21.91;69.42;102614.25;5245719;28;20036;-72
2022/07/06 09:43:33;;;;;;;4.45;1.60;;;;;;;21.69;69.70;102612.63;5263853;28;20028;-72
2022/07/06 09:46:03;;;;;;;8.77;1.50;;;;;;;21.82;69.06;102609.97;5252071;28;20111;-72
2022/07/06 09:48:35;;;;;;;5.32;1.60;;;;;;;21.65;70.49;102611.31;5243349;28;20099;-72
2022/07/06 09:51:06;;;;;;;2.90;1.38;;;;;;;21.62;74.79;102609.81;5252996;28;20081;-71
2022/07/06 09:53:37;;;;;;;2.63;1.25;;;;;;;21.60;72.04;102613.78;5257121;28;20026;-71
2022/07/06 09:56:07;;;;;;;7.63;2.58;;;;;;;22.14;69.11;102605.84;5248359;28;20031;-72
2022/07/06 09:58:38;;;;;;;4.80;1.35;;;;;;;22.16;65.69;102605.63;5255066;28;20370;-71
2022/07/06 10:01:09;;;;;;;13.82;4.15;;;;;;;22.10;69.08;102611.88;5245466;28;20035;-71
2022/07/06 10:03:40;;;;;;;6.38;1.60;;;;;;;21.97;69.97;102612.59;5231799;28;20039;-72
2022/07/06 10:06:12;;;;;;;5.13;1.60;;;;;;;22.66;68.80;102611.78;5258390;28;20389;-71
2022/07/06 10:08:44;;;;;;;4.10;1.42;;;;;;;23.19;67.14;102617.44;5244845;28;20108;-72
2022/07/06 10:11:15;;;;;;;4.53;1.30;;;;;;;23.69;63.51;102613.28;5245717;28;20032;-72
2022/07/06 10:13:47;;;;;;;4.20;1.42;;;;;;;23.82;66.63;102617.09;5244991;28;20033;-73
2022/07/06 10:16:18;;;;;;;2.50;1.45;;;;;;;23.92;60.73;102617.50;5255887;28;20481;-72
2022/07/06 10:21:39;;;;;;;4.93;1.42;;;;;;;23.33;63.96;102618.31;5245079;28;20032;-72
2022/07/06 10:24:12;;;;;;;6.65;1.30;;;;;;;23.09;63.53;102625.19;5253565;28;20020;-72
2022/07/06 10:26:42;;;;;;;6.93;1.50;;;;;;;22.58;68.03;102622.88;5250142;28;20046;-72
2022/07/06 10:29:14;;;;;;;4.63;1.45;;;;;;;22.88;67.09;102617.94;5245460;28;20024;-72
2022/07/06 10:31:47;;;;;;;5.05;1.92;;;;;;;23.34;66.77;102614.50;5245389;28;20044;-72
2022/07/06 10:34:19;;;;;;;7.97;1.85;;;;;;;23.50;65.58;102614.13;5256908;28;20493;-72
2022/07/06 10:36:54;;;;;;;7.07;1.77;;;;;;;23.84;63.83;102617.72;5246243;28;20024;-71
2022/07/06 10:42:49;;;;;;;5.00;1.40;;;;;;;24.21;61.40;102618.94;5245327;28;20024;-71
2022/07/06 10:45:58;;;;;;;3.90;1.90;;;;;;;24.06;58.02;102618.34;5256530;28;20035;-71
2022/07/06 10:48:40;;;;;;;8.90;1.70;;;;;;;23.74;59.90;102615.41;5242775;28;20025;-72
2022/07/06 10:51:13;;;;;;;6.97;1.98;;;;;;;23.53;64.65;102609.03;5248612;28;20024;-72
2022/07/06 10:53:44;;;;;;;5.68;1.90;;;;;;;23.69;63.14;102604.22;5254563;28;20111;-72
2022/07/06 10:56:14;;;;;;;5.10;1.80;;;;;;;23.76;59.68;102608.66;5256562;28;20035;-72
2022/07/06 10:59:08;;;;;;;6.68;1.92;;;;;;;23.15;64.29;102605.22;5253923;28;20466;-71
2022/07/06 11:01:39;;;;;;;7.53;2.22;;;;;;;23.24;64.28;102602.09;5233723;28;20033;-72
2022/07/06 11:04:09;;;;;;;3.53;1.80;;;;;;;23.45;62.21;102606.53;5248520;28;20028;-72
2022/07/06 11:06:40;;;;;;;9.75;1.63;;;;;;;23.30;62.26;102599.56;5254960;28;20021;-71
2022/07/06 11:09:11;;;;;;;6.07;1.77;;;;;;;23.41;62.13;102596.22;5245238;28;20028;-71
2022/07/06 11:11:44;;;;;;;2.75;1.50;;;;;;;23.22;60.99;102595.97;5257406;28;20024;-71
2022/07/06 11:14:16;;;;;;;3.63;1.83;;;;;;;23.21;62.02;102597.03;5258426;28;20043;-71
2022/07/06 11:16:46;;;;;;;6.68;2.45;;;;;;;23.09;61.16;102595.94;5258937;28;20083;-72
2022/07/06 11:19:20;;;;;;;9.48;2.00;;;;;;;23.19;61.40;102590.06;5259681;28;20031;-72
2022/07/06 11:21:56;;;;;;;4.80;1.75;;;;;;;23.72;60.76;102593.69;5251125;28;20028;-71
2022/07/06 11:24:29;;;;;;;7.75;2.05;;;;;;;23.76;64.17;102591.41;5258675;28;20027;-72
2022/07/06 11:27:00;;;;;;;5.35;1.90;;;;;;;24.23;59.29;102592.16;5252720;28;20059;-72
2022/07/06 11:29:31;;;;;;;2.95;1.60;;;;;;;24.45;61.72;102593.59;5257589;28;20024;-72
2022/07/06 11:32:03;;;;;;;6.13;1.75;;;;;;;24.81;57.94;102589.44;5261822;28;20043;-72
2022/07/06 11:34:36;;;;;;;9.43;2.35;;;;;;;24.67;57.61;102587.81;5247927;28;20086;-72
2022/07/06 11:37:09;;;;;;;6.20;2.58;;;;;;;24.87;55.56;102588.53;5248299;28;20078;-72
2022/07/06 11:39:42;;;;;;;6.93;2.00;;;;;;;24.59;58.42;102585.28;5248267;28;20054;-72
2022/07/06 11:42:16;;;;;;;8.90;2.10;;;;;;;24.50;58.99;102585.56;5248346;28;20427;-71
2022/07/06 11:44:48;;;;;;;6.97;2.20;;;;;;;24.62;57.35;102582.97;5251963;28;20020;-72
2022/07/06 11:47:20;;;;;;;5.50;2.28;;;;;;;24.58;55.31;102578.13;5257437;28;20065;-71